Time;durP1;ratioP1;P1;durP2;ratioP2;P2;SDS_P1;SDS_P2;PMS_P1;PMS_P2;Temp;Humidity;BMP_temperature;BMP_pressure;BME280_temperature;BME280_humidity;BME280_pressure;Samples;Min_cycle;Max_cycle;Signal;HPM_P1;HPM_P2
2021/01/26 00:01:03;;;;;;;7.30;0.80;;;2.60;96.00;;;;;;4979633;28;20114;-95
2021/01/26 00:03:29;;;;;;;3.13;0.50;;;2.60;96.00;;;;;;4977595;28;20065;-94
2021/01/26 00:05:55;;;;;;;2.67;0.50;;;2.60;95.90;;;;;;4986911;28;20027;-94
2021/01/26 00:08:21;;;;;;;5.72;0.70;;;2.60;95.90;;;;;;4985132;28;20030;-95
2021/01/26 00:10:47;;;;;;;4.00;1.10;;;2.70;95.80;;;;;;4977481;28;20035;-94
2021/01/26 00:13:14;;;;;;;7.15;1.40;;;2.60;95.90;;;;;;4979085;28;20027;-95
2021/01/26 00:15:40;;;;;;;6.03;1.67;;;2.70;96.00;;;;;;4977625;28;20180;-94
2021/01/26 00:18:07;;;;;;;6.25;1.60;;;2.70;96.00;;;;;;4986668;28;20452;-94
2021/01/26 00:20:36;;;;;;;10.60;2.17;;;2.80;96.10;;;;;;4988043;28;20039;-94
2021/01/26 00:23:02;;;;;;;10.15;2.70;;;2.70;96.10;;;;;;4968187;28;20077;-94
2021/01/26 00:25:32;;;;;;;10.43;3.10;;;2.70;96.00;;;;;;4976935;28;20035;-95
2021/01/26 00:27:58;;;;;;;12.27;3.50;;;2.80;96.20;;;;;;4975641;28;20035;-94
2021/01/26 00:30:28;;;;;;;7.03;2.20;;;2.80;96.30;;;;;;4978076;28;20035;-93
2021/01/26 00:32:54;;;;;;;9.02;2.15;;;2.90;96.30;;;;;;4980307;28;20015;-94
2021/01/26 00:35:22;;;;;;;6.25;1.70;;;3.00;96.30;;;;;;4973997;28;20039;-93
2021/01/26 00:37:48;;;;;;;10.73;2.38;;;3.00;96.20;;;;;;4973587;28;20023;-94
2021/01/26 00:40:15;;;;;;;6.65;1.58;;;3.00;96.20;;;;;;4973106;28;20056;-96
2021/01/26 00:42:45;;;;;;;8.43;1.80;;;3.10;96.20;;;;;;4974649;28;20034;-93
2021/01/26 00:45:13;;;;;;;9.13;1.63;;;3.00;96.20;;;;;;4972180;28;20034;-93
2021/01/26 00:47:38;;;;;;;7.93;2.33;;;3.10;96.20;;;;;;4972260;28;20035;-95
2021/01/26 00:50:05;;;;;;;10.98;2.08;;;3.10;96.20;;;;;;4972095;28;20030;-93
2021/01/26 00:52:31;;;;;;;11.02;2.80;;;3.10;96.20;;;;;;4973431;28;20027;-94
2021/01/26 00:54:57;;;;;;;8.38;3.20;;;3.20;96.20;;;;;;4971494;28;20085;-94
2021/01/26 00:57:23;;;;;;;15.50;2.97;;;3.20;96.30;;;;;;4982215;28;20038;-93
2021/01/26 00:59:50;;;;;;;8.35;2.88;;;3.20;96.30;;;;;;5076298;28;20021;-93
2021/01/26 01:02:16;;;;;;;13.88;3.45;;;3.30;96.20;;;;;;4982769;28;20034;-93
2021/01/26 01:04:43;;;;;;;11.80;3.95;;;3.30;96.20;;;;;;4981008;28;20034;-92
2021/01/26 01:07:09;;;;;;;13.13;3.53;;;3.40;96.30;;;;;;4972601;28;20486;-94
2021/01/26 01:09:36;;;;;;;10.07;3.60;;;3.40;96.30;;;;;;4971733;28;20037;-93
2021/01/26 01:12:02;;;;;;;12.52;2.72;;;3.50;96.30;;;;;;4973345;28;20426;-94
2021/01/26 01:14:29;;;;;;;16.65;5.63;;;3.50;96.30;;;;;;4972409;28;20027;-92
2021/01/26 01:16:56;;;;;;;13.88;2.72;;;3.50;96.20;;;;;;4973765;28;20124;-94
2021/01/26 01:19:23;;;;;;;19.63;3.33;;;3.60;96.20;;;;;;4974561;28;20062;-94
2021/01/26 01:21:50;;;;;;;8.48;2.20;;;3.60;96.10;;;;;;4969756;28;20141;-94
2021/01/26 01:24:16;;;;;;;12.68;2.17;;;3.60;96.00;;;;;;4982833;28;20042;-92
2021/01/26 01:26:43;;;;;;;12.52;1.88;;;3.60;95.80;;;;;;4980627;28;20066;-94
2021/01/26 01:29:14;;;;;;;7.40;1.10;;;3.50;95.80;;;;;;4980509;28;20510;-93
2021/01/26 01:31:41;;;;;;;13.85;1.90;;;3.50;96.00;;;;;;4974722;28;20076;-93
2021/01/26 01:34:09;;;;;;;11.65;1.27;;;3.50;95.70;;;;;;4976618;28;20023;-93
2021/01/26 01:36:36;;;;;;;12.38;1.40;;;3.50;95.80;;;;;;4973337;28;20035;-92
2021/01/26 01:39:08;;;;;;;9.98;1.92;;;3.50;95.80;;;;;;4976626;28;20038;-92
2021/01/26 01:41:37;;;;;;;12.88;2.30;;;3.50;95.70;;;;;;4977586;28;20058;-92
2021/01/26 01:44:05;;;;;;;12.13;2.35;;;3.50;95.70;;;;;;4979651;28;20429;-93
2021/01/26 01:46:40;;;;;;;13.55;2.38;;;3.40;95.70;;;;;;4979742;28;20025;-93
2021/01/26 01:49:08;;;;;;;12.80;2.38;;;3.40;95.80;;;;;;4980742;28;20031;-93
2021/01/26 01:51:39;;;;;;;11.25;2.22;;;3.40;95.90;;;;;;4977476;28;20386;-92
2021/01/26 01:54:17;;;;;;;12.70;2.45;;;3.30;96.00;;;;;;4974760;28;20474;-93
2021/01/26 01:56:54;;;;;;;10.13;1.77;;;3.30;96.10;;;;;;4976820;28;20038;-93
2021/01/26 01:59:27;;;;;;;11.35;2.28;;;3.40;96.20;;;;;;4976174;28;20042;-92
2021/01/26 02:01:53;;;;;;;13.45;1.92;;;3.40;96.10;;;;;;4962066;28;20162;-93
2021/01/26 02:04:22;;;;;;;15.60;2.42;;;3.40;96.10;;;;;;4973399;28;20023;-93
2021/01/26 02:06:54;;;;;;;11.55;2.15;;;3.50;96.10;;;;;;4974534;28;20019;-92
2021/01/26 02:09:26;;;;;;;10.30;1.00;;;3.50;96.30;;;;;;4971543;28;20090;-92
2021/01/26 02:11:52;;;;;;;16.23;1.50;;;3.60;96.00;;;;;;4972913;28;20043;-92
2021/01/26 02:14:18;;;;;;;11.77;1.25;;;3.50;95.90;;;;;;4983559;28;20034;-91
2021/01/26 02:17:06;;;;;;;13.82;1.58;;;3.50;95.90;;;;;;4972895;28;20027;-93
2021/01/26 02:19:53;;;;;;;9.70;1.10;;;3.40;95.90;;;;;;4987170;28;20411;-91
2021/01/26 02:22:56;;;;;;;14.88;1.48;;;3.40;96.00;;;;;;4975622;28;20035;-92
2021/01/26 02:25:46;;;;;;;5.13;0.55;;;3.30;96.00;;;;;;4972904;28;20042;-93
2021/01/26 02:28:34;;;;;;;14.82;1.85;;;3.30;96.00;;;;;;4973909;28;20036;-92
2021/01/26 02:31:18;;;;;;;6.60;0.75;;;3.20;96.10;;;;;;4965705;28;20027;-93
2021/01/26 02:34:26;;;;;;;13.80;1.45;;;3.20;96.10;;;;;;4974247;28;20053;-92
2021/01/26 02:37:10;;;;;;;10.20;1.48;;;3.20;96.10;;;;;;4955730;28;20031;-92
2021/01/26 02:40:05;;;;;;;7.55;0.50;;;3.20;96.20;;;;;;4971807;28;20062;-93
2021/01/26 02:43:02;;;;;;;4.55;0.85;;;3.20;96.20;;;;;;4972939;28;20023;-92
2021/01/26 02:45:49;;;;;;;2.08;0.15;;;3.20;96.10;;;;;;4984891;28;20026;-92
2021/01/26 02:48:43;;;;;;;1.38;0.30;;;3.20;95.70;;;;;;4968492;28;20030;-93
2021/01/26 02:51:33;;;;;;;4.75;0.30;;;3.10;95.50;;;;;;4969467;28;20388;-92
2021/01/26 02:54:24;;;;;;;2.95;0.10;;;3.00;95.40;;;;;;4973149;28;20114;-91
2021/01/26 02:57:22;;;;;;;5.15;0.20;;;3.00;95.40;;;;;;4987793;28;20066;-92
2021/01/26 03:00:19;;;;;;;2.97;0.20;;;2.90;95.50;;;;;;4976542;28;20035;-92
2021/01/26 03:02:55;;;;;;;2.97;0.20;;;2.90;95.60;;;;;;4959446;28;20043;-92
2021/01/26 03:05:33;;;;;;;6.75;0.17;;;2.80;95.70;;;;;;4979226;28;20022;-91
2021/01/26 03:08:03;;;;;;;1.75;0.10;;;2.90;95.80;;;;;;4972199;28;20027;-92
2021/01/26 03:10:36;;;;;;;2.92;0.30;;;2.90;95.80;;;;;;4977144;28;20026;-92
2021/01/26 03:13:07;;;;;;;3.35;0.50;;;2.90;95.80;;;;;;4974153;28;20484;-93
2021/01/26 03:15:40;;;;;;;4.57;0.25;;;3.00;95.90;;;;;;4979436;28;20029;-91
2021/01/26 03:18:11;;;;;;;6.63;0.45;;;3.10;95.80;;;;;;4971496;28;20031;-93
2021/01/26 03:20:45;;;;;;;1.88;0.30;;;3.10;95.70;;;;;;4971795;28;20064;-91
2021/01/26 03:23:19;;;;;;;2.13;0.25;;;3.10;95.60;;;;;;4988564;28;20414;-92
2021/01/26 03:25:51;;;;;;;2.95;0.30;;;3.10;95.50;;;;;;4971735;28;20035;-90
2021/01/26 03:28:18;;;;;;;6.40;0.98;;;3.10;95.40;;;;;;4972297;28;20035;-91
2021/01/26 03:30:47;;;;;;;4.18;0.40;;;3.00;95.30;;;;;;4970148;28;20057;-92
2021/01/26 03:33:22;;;;;;;4.88;0.45;;;3.00;95.40;;;;;;4970482;28;20540;-92
2021/01/26 03:35:48;;;;;;;4.63;0.30;;;3.00;95.60;;;;;;4971358;28;20034;-92
2021/01/26 03:38:20;;;;;;;8.95;0.60;;;3.00;95.30;;;;;;4970683;28;20035;-92
2021/01/26 03:40:46;;;;;;;7.78;0.70;;;3.00;95.40;;;;;;4971018;28;20394;-92
2021/01/26 03:43:12;;;;;;;11.63;0.45;;;3.00;95.40;;;;;;4969697;28;20069;-92
2021/01/26 03:45:37;;;;;;;6.60;0.57;;;3.00;95.40;;;;;;4970409;28;20047;-91
2021/01/26 03:48:33;;;;;;;11.30;0.50;;;3.00;95.50;;;;;;4970665;28;20151;-92
2021/01/26 03:51:01;;;;;;;6.00;0.50;;;3.10;95.40;;;;;;4937255;28;20040;-92
2021/01/26 03:53:53;;;;;;;8.55;0.70;;;3.10;95.50;;;;;;4969398;28;20019;-92
2021/01/26 03:56:28;;;;;;;12.70;0.63;;;3.20;95.50;;;;;;4973081;28;20084;-92
2021/01/26 03:59:21;;;;;;;7.55;1.00;;;3.20;95.60;;;;;;4970658;28;20030;-91
2021/01/26 04:02:13;;;;;;;6.82;0.68;;;3.30;95.60;;;;;;4973730;28;20041;-90
2021/01/26 04:04:55;;;;;;;6.63;0.60;;;3.40;95.50;;;;;;4971089;28;20153;-91
2021/01/26 04:07:32;;;;;;;10.60;0.80;;;3.40;95.30;;;;;;4971522;28;20027;-91
2021/01/26 04:10:08;;;;;;;10.63;0.73;;;3.40;95.20;;;;;;4972970;28;20398;-91
2021/01/26 04:12:39;;;;;;;13.48;1.30;;;3.40;95.10;;;;;;4969769;28;20747;-92
2021/01/26 04:15:18;;;;;;;11.45;1.15;;;3.40;95.30;;;;;;4971008;28;20092;-91
2021/01/26 04:17:49;;;;;;;7.00;0.50;;;3.40;94.90;;;;;;4971544;28;20035;-90
2021/01/26 04:20:22;;;;;;;11.38;0.50;;;3.40;94.80;;;;;;4969662;28;20434;-90
2021/01/26 04:22:56;;;;;;;5.75;0.40;;;3.40;94.80;;;;;;4980506;28;20045;-90
2021/01/26 04:25:25;;;;;;;6.55;0.47;;;3.30;94.80;;;;;;4971275;28;20062;-92
2021/01/26 04:27:50;;;;;;;6.20;0.43;;;3.30;94.90;;;;;;4967409;28;20074;-91
2021/01/26 04:30:18;;;;;;;10.90;1.00;;;3.30;94.90;;;;;;4971187;28;20089;-91
2021/01/26 04:32:43;;;;;;;10.35;0.70;;;3.30;94.90;;;;;;4982466;28;20544;-91
2021/01/26 04:35:10;;;;;;;8.68;0.70;;;3.30;95.00;;;;;;4973901;28;20027;-91
2021/01/26 04:37:38;;;;;;;8.40;1.23;;;3.30;95.10;;;;;;4970078;28;20387;-93
2021/01/26 04:40:05;;;;;;;17.48;0.88;;;3.30;95.20;;;;;;4971088;28;20027;-91
2021/01/26 04:42:38;;;;;;;11.38;1.10;;;3.30;95.40;;;;;;4970488;28;20054;-92
2021/01/26 04:45:34;;;;;;;9.77;0.55;;;3.40;95.30;;;;;;4969594;28;20034;-91
2021/01/26 04:48:08;;;;;;;8.27;0.60;;;3.40;95.20;;;;;;4971923;28;20046;-89
2021/01/26 04:50:55;;;;;;;14.55;1.17;;;3.40;95.30;;;;;;4987260;28;20023;-92
2021/01/26 04:53:39;;;;;;;8.68;0.73;;;3.30;95.20;;;;;;5076530;28;20373;-92
2021/01/26 04:56:19;;;;;;;13.18;0.80;;;3.30;95.30;;;;;;4998691;28;20025;-92
2021/01/26 04:58:57;;;;;;;11.15;0.50;;;3.30;95.30;;;;;;4974166;28;20064;-91
2021/01/26 05:01:37;;;;;;;8.77;1.40;;;3.30;95.40;;;;;;4983290;28;20445;-91
2021/01/26 05:04:12;;;;;;;9.00;0.50;;;3.30;95.40;;;;;;4971757;28;20035;-91
2021/01/26 05:06:51;;;;;;;12.30;0.60;;;3.30;95.50;;;;;;4975924;28;20023;-91
2021/01/26 05:09:49;;;;;;;9.95;0.50;;;3.40;95.40;;;;;;4975057;28;20031;-91
2021/01/26 05:12:17;;;;;;;7.70;0.60;;;3.40;95.30;;;;;;4974490;28;20027;-94
2021/01/26 05:14:48;;;;;;;4.25;0.50;;;3.40;95.20;;;;;;4976031;28;20034;-91
2021/01/26 05:17:13;;;;;;;6.70;0.30;;;3.40;94.80;;;;;;4979209;28;20038;-91
2021/01/26 05:19:46;;;;;;;5.97;0.45;;;3.40;94.40;;;;;;4977865;28;20395;-91
2021/01/26 05:23:04;;;;;;;7.32;0.30;;;3.40;94.00;;;;;;4983542;28;20031;-90
2021/01/26 05:25:30;;;;;;;8.20;0.20;;;3.30;93.80;;;;;;4964640;28;20046;-90
2021/01/26 05:27:56;;;;;;;5.20;0.30;;;3.30;93.70;;;;;;4973355;28;20047;-90
2021/01/26 05:30:28;;;;;;;2.10;0.20;;;3.20;93.80;;;;;;4976633;28;20399;-90
2021/01/26 05:32:55;;;;;;;5.00;0.32;;;3.20;93.90;;;;;;4970901;28;20035;-90
2021/01/26 05:35:22;;;;;;;6.30;0.25;;;3.30;94.00;;;;;;4975176;28;20030;-91
2021/01/26 05:37:50;;;;;;;7.70;0.40;;;3.30;94.00;;;;;;4974257;28;20108;-91
2021/01/26 05:40:29;;;;;;;3.83;0.30;;;3.30;94.00;;;;;;4972464;28;20030;-90
2021/01/26 05:43:02;;;;;;;7.47;0.45;;;3.30;94.10;;;;;;4971030;28;20112;-90
2021/01/26 05:45:40;;;;;;;8.18;0.75;;;3.30;94.30;;;;;;4973632;28;20023;-90
2021/01/26 05:48:11;;;;;;;4.75;0.38;;;3.40;94.40;;;;;;4993268;28;20041;-89
2021/01/26 05:50:39;;;;;;;9.70;0.50;;;3.40;94.40;;;;;;4972602;28;20023;-90
2021/01/26 05:53:19;;;;;;;11.25;0.63;;;3.50;94.40;;;;;;4973166;28;20053;-89
2021/01/26 05:55:58;;;;;;;6.85;0.50;;;3.60;94.40;;;;;;4970590;28;20484;-91
2021/01/26 05:58:29;;;;;;;8.48;0.63;;;3.60;94.40;;;;;;4973537;28;20042;-91
2021/01/26 06:00:57;;;;;;;5.23;0.40;;;3.70;94.60;;;;;;4971788;28;20116;-91
2021/01/26 06:03:23;;;;;;;5.85;0.40;;;3.70;94.40;;;;;;4969533;28;20035;-89
2021/01/26 06:06:06;;;;;;;6.03;0.40;;;3.70;94.30;;;;;;4972704;28;20114;-90
2021/01/26 06:08:47;;;;;;;9.73;0.50;;;3.70;94.30;;;;;;4989798;28;20042;-90
2021/01/26 06:11:20;;;;;;;9.32;0.82;;;3.70;94.40;;;;;;4974083;28;20076;-91
2021/01/26 06:13:46;;;;;;;8.43;0.70;;;3.80;94.40;;;;;;4980933;28;20031;-91
2021/01/26 06:16:13;;;;;;;20.67;1.20;;;3.70;94.30;;;;;;4971039;28;20034;-88
2021/01/26 06:18:54;;;;;;;10.20;0.60;;;3.60;94.30;;;;;;4970033;28;20483;-93
2021/01/26 06:21:19;;;;;;;10.48;1.30;;;3.60;94.30;;;;;;4979102;28;20360;-93
2021/01/26 06:23:45;;;;;;;8.63;0.55;;;3.60;94.50;;;;;;4972007;28;20038;-92
2021/01/26 06:26:12;;;;;;;5.05;0.43;;;3.60;94.60;;;;;;4978246;28;20605;-92
2021/01/26 06:29:07;;;;;;;13.48;0.60;;;3.60;94.70;;;;;;4998426;28;20052;-93
2021/01/26 06:31:59;;;;;;;5.70;0.50;;;3.70;94.70;;;;;;4971767;28;20398;-94
2021/01/26 06:35:12;;;;;;;8.40;0.57;;;3.70;94.70;;;;;;4971015;28;20487;-94
2021/01/26 06:37:55;;;;;;;10.63;0.93;;;3.80;94.70;;;;;;4998051;28;20045;-92
2021/01/26 06:40:56;;;;;;;14.32;1.27;;;3.80;94.60;;;;;;4969485;28;20019;-91
2021/01/26 06:43:49;;;;;;;7.68;0.80;;;3.80;94.60;;;;;;4971144;28;20053;-93
2021/01/26 06:46:31;;;;;;;11.10;0.75;;;3.80;94.60;;;;;;4970178;28;20065;-93
2021/01/26 06:49:19;;;;;;;8.75;0.63;;;3.80;94.70;;;;;;4972055;28;20027;-93
2021/01/26 06:52:09;;;;;;;10.18;0.65;;;3.80;94.80;;;;;;4974037;28;20469;-91
2021/01/26 06:54:55;;;;;;;12.63;0.70;;;3.90;94.80;;;;;;4976772;28;20027;-93
2021/01/26 06:57:26;;;;;;;9.32;0.75;;;3.90;94.70;;;;;;4985751;28;20031;-93
2021/01/26 07:00:10;;;;;;;15.88;1.00;;;3.90;94.70;;;;;;4976188;28;20473;-93
2021/01/26 07:02:46;;;;;;;5.93;0.57;;;3.90;94.60;;;;;;5024906;28;20035;-93
2021/01/26 07:05:37;;;;;;;10.77;0.68;;;3.90;94.70;;;;;;5028266;28;20098;-91
2021/01/26 07:08:29;;;;;;;8.20;0.63;;;3.90;94.60;;;;;;5022971;28;20031;-90
2021/01/26 07:11:12;;;;;;;10.23;0.93;;;3.90;94.60;;;;;;4980691;28;20042;-91
2021/01/26 07:14:00;;;;;;;11.13;0.65;;;3.90;94.60;;;;;;4960783;28;20041;-92
2021/01/26 07:16:54;;;;;;;8.77;0.52;;;3.90;94.60;;;;;;4975181;28;20380;-92
2021/01/26 07:19:55;;;;;;;11.32;0.85;;;3.90;94.60;;;;;;5001468;28;20067;-93
2021/01/26 07:22:52;;;;;;;14.60;1.10;;;3.90;94.60;;;;;;4967093;28;20111;-91
2021/01/26 07:25:29;;;;;;;10.18;0.75;;;3.90;94.60;;;;;;4969735;28;20033;-93
2021/01/26 07:28:06;;;;;;;12.30;1.10;;;3.90;94.70;;;;;;4971286;28;20070;-93
2021/01/26 07:30:53;;;;;;;7.72;1.33;;;3.90;94.70;;;;;;4967830;28;20064;-93
2021/01/26 07:33:23;;;;;;;7.00;0.80;;;3.80;94.70;;;;;;4974092;28;20034;-94
2021/01/26 07:36:13;;;;;;;10.82;0.70;;;3.90;94.70;;;;;;4978305;28;20390;-93
2021/01/26 07:39:09;;;;;;;6.50;0.50;;;3.80;94.70;;;;;;4999782;28;20073;-93
2021/01/26 07:41:54;;;;;;;4.57;0.60;;;3.90;94.80;;;;;;4985502;28;20065;-94
2021/01/26 07:44:33;;;;;;;10.50;0.82;;;3.80;94.80;;;;;;4972585;28;20027;-94
2021/01/26 07:47:20;;;;;;;13.73;0.60;;;3.80;94.90;;;;;;4983202;28;20364;-93
2021/01/26 07:50:05;;;;;;;10.90;0.88;;;3.80;94.90;;;;;;5004152;28;20054;-94
2021/01/26 07:52:34;;;;;;;9.10;0.60;;;3.80;94.90;;;;;;5017115;28;20035;-94
2021/01/26 07:55:31;;;;;;;15.07;1.23;;;3.90;94.90;;;;;;4978483;28;20490;-93
2021/01/26 07:58:06;;;;;;;10.50;1.27;;;3.90;94.90;;;;;;4970430;28;20035;-93
2021/01/26 08:00:37;;;;;;;16.35;1.30;;;3.90;94.90;;;;;;4972131;28;20041;-94
2021/01/26 08:03:03;;;;;;;15.27;1.10;;;3.80;94.90;;;;;;4979475;28;20027;-93
2021/01/26 08:05:47;;;;;;;12.73;1.80;;;3.90;94.90;;;;;;5021983;28;20051;-94
2021/01/26 08:08:21;;;;;;;9.48;1.08;;;3.90;94.90;;;;;;5013544;28;20081;-93
2021/01/26 08:10:47;;;;;;;14.45;1.13;;;3.90;94.90;;;;;;4982456;28;20519;-94
2021/01/26 08:13:27;;;;;;;10.65;0.95;;;3.90;94.90;;;;;;4971789;28;20066;-94
2021/01/26 08:15:53;;;;;;;17.33;0.98;;;3.90;95.00;;;;;;4989838;28;20078;-94
2021/01/26 08:18:32;;;;;;;11.80;1.02;;;3.90;95.00;;;;;;4979141;28;20027;-94
2021/01/26 08:20:57;;;;;;;15.10;0.95;;;4.00;94.90;;;;;;4971888;28;20039;-94
2021/01/26 08:23:30;;;;;;;11.80;1.27;;;4.00;94.90;;;;;;4989343;28;20073;-94
2021/01/26 08:26:15;;;;;;;12.38;1.70;;;4.00;94.90;;;;;;4980298;28;20063;-95
2021/01/26 08:28:48;;;;;;;13.18;1.02;;;4.00;94.90;;;;;;5013352;28;20075;-94
2021/01/26 08:31:31;;;;;;;13.48;1.30;;;4.00;94.80;;;;;;4972547;28;20121;-96
2021/01/26 08:34:21;;;;;;;8.82;0.90;;;4.10;94.80;;;;;;5022114;28;20034;-94
2021/01/26 08:37:08;;;;;;;12.70;0.73;;;4.00;94.90;;;;;;4974693;28;20030;-93
2021/01/26 08:39:44;;;;;;;7.15;0.50;;;4.10;94.90;;;;;;4993000;28;20065;-94
2021/01/26 08:42:31;;;;;;;10.30;0.60;;;4.10;94.90;;;;;;4983556;28;20027;-94
2021/01/26 08:44:58;;;;;;;7.68;0.60;;;4.10;94.70;;;;;;4971581;28;20390;-95
2021/01/26 08:47:45;;;;;;;7.55;0.35;;;4.10;94.70;;;;;;4981514;28;20019;-95
2021/01/26 08:50:36;;;;;;;11.32;0.50;;;4.10;94.60;;;;;;4985700;28;20098;-96
2021/01/26 08:53:34;;;;;;;9.90;0.70;;;4.00;94.60;;;;;;5032366;28;20022;-96
2021/01/26 08:56:15;;;;;;;10.23;1.60;;;4.00;94.60;;;;;;5021666;28;20028;-93
2021/01/26 08:58:45;;;;;;;6.10;0.40;;;4.10;94.60;;;;;;5004363;28;20043;-93
2021/01/26 09:01:34;;;;;;;5.45;0.73;;;4.00;94.60;;;;;;4977457;28;20027;-95
2021/01/26 09:04:12;;;;;;;7.15;0.73;;;4.00;94.60;;;;;;5003188;28;20059;-94
2021/01/26 09:06:42;;;;;;;8.38;0.70;;;4.10;94.60;;;;;;5032703;28;20086;-93
2021/01/26 09:09:23;;;;;;;12.20;0.73;;;4.10;94.90;;;;;;4977822;28;20031;-92
2021/01/26 09:12:00;;;;;;;7.13;0.40;;;4.20;94.70;;;;;;4965996;28;20027;-94
2021/01/26 09:14:45;;;;;;;8.15;1.10;;;4.20;94.60;;;;;;5004057;28;20125;-93
2021/01/26 09:17:35;;;;;;;6.30;0.40;;;4.30;94.50;;;;;;4964649;28;20031;-93
2021/01/26 09:20:21;;;;;;;9.95;0.70;;;4.30;94.50;;;;;;4979278;28;20038;-94
2021/01/26 09:22:47;;;;;;;7.53;0.55;;;4.30;94.40;;;;;;4970173;28;20165;-94
2021/01/26 09:25:24;;;;;;;9.18;0.50;;;4.30;94.30;;;;;;4992198;28;20433;-92
2021/01/26 09:28:11;;;;;;;6.57;0.60;;;4.30;94.30;;;;;;4989653;28;20131;-93
2021/01/26 09:30:40;;;;;;;5.63;0.50;;;4.30;94.20;;;;;;5015698;28;20035;-92
2021/01/26 09:33:26;;;;;;;7.90;0.73;;;4.30;94.20;;;;;;4968980;28;20038;-92
2021/01/26 09:35:54;;;;;;;6.70;0.47;;;4.40;94.20;;;;;;4981719;28;20039;-93
2021/01/26 09:38:20;;;;;;;7.25;0.60;;;4.40;94.20;;;;;;5067776;28;20029;-94
2021/01/26 09:40:55;;;;;;;3.47;0.40;;;4.40;94.10;;;;;;5072971;28;20370;-93
2021/01/26 09:43:24;;;;;;;6.95;0.50;;;4.40;94.00;;;;;;4982392;28;20059;-93
2021/01/26 09:45:58;;;;;;;6.40;0.82;;;4.40;94.00;;;;;;4971123;28;20031;-92
2021/01/26 09:48:49;;;;;;;6.35;0.47;;;4.40;94.00;;;;;;4984987;28;20091;-92
2021/01/26 09:51:25;;;;;;;8.02;0.52;;;4.50;93.90;;;;;;4968365;28;20055;-92
2021/01/26 09:54:04;;;;;;;5.90;0.57;;;4.50;93.90;;;;;;4991079;28;20117;-93
2021/01/26 09:56:32;;;;;;;7.55;0.70;;;4.50;93.90;;;;;;5032542;28;20074;-94
2021/01/26 09:58:59;;;;;;;6.05;0.73;;;4.60;94.20;;;;;;5061246;28;20435;-92
2021/01/26 10:01:27;;;;;;;6.85;0.50;;;4.60;94.00;;;;;;5024667;28;20027;-92
2021/01/26 10:03:59;;;;;;;7.07;1.13;;;4.60;94.00;;;;;;4996629;28;20088;-93
2021/01/26 10:06:26;;;;;;;7.85;0.63;;;4.70;93.90;;;;;;4993271;28;20035;-92
2021/01/26 10:08:55;;;;;;;7.00;0.75;;;4.70;93.80;;;;;;5055132;28;20074;-92
2021/01/26 10:11:29;;;;;;;7.45;0.50;;;4.70;93.80;;;;;;4965890;28;20094;-92
2021/01/26 10:14:15;;;;;;;5.13;0.50;;;4.80;93.80;;;;;;4985484;28;20038;-92
2021/01/26 10:16:45;;;;;;;9.00;0.50;;;4.80;93.90;;;;;;5017549;28;20023;-93
2021/01/26 10:19:24;;;;;;;7.63;0.60;;;4.80;93.90;;;;;;4967079;28;20126;-91
2021/01/26 10:21:51;;;;;;;5.32;0.70;;;4.90;93.90;;;;;;5030001;28;20069;-92
2021/01/26 10:24:29;;;;;;;10.93;1.00;;;4.90;93.90;;;;;;4976296;28;20039;-93
2021/01/26 10:27:08;;;;;;;6.97;1.13;;;4.90;93.90;;;;;;4973804;28;20075;-92
2021/01/26 10:29:39;;;;;;;7.38;0.60;;;4.90;93.90;;;;;;4971073;28;20039;-92
2021/01/26 10:32:07;;;;;;;10.68;1.38;;;5.00;93.90;;;;;;4984846;28;20088;-92
2021/01/26 10:34:36;;;;;;;9.55;0.90;;;4.90;94.00;;;;;;4957997;28;20058;-93
2021/01/26 10:37:22;;;;;;;7.78;0.85;;;5.00;93.90;;;;;;4973776;28;20479;-92
2021/01/26 10:40:05;;;;;;;12.85;0.70;;;5.10;93.90;;;;;;4972003;28;20039;-91
2021/01/26 10:42:34;;;;;;;6.28;0.70;;;5.10;93.80;;;;;;4989662;28;20081;-91
2021/01/26 10:45:03;;;;;;;7.60;1.42;;;5.10;93.90;;;;;;4988391;28;20062;-90
2021/01/26 10:47:36;;;;;;;4.72;0.70;;;5.20;93.80;;;;;;4971018;28;20031;-93
2021/01/26 10:50:11;;;;;;;10.07;0.90;;;5.30;93.90;;;;;;4976860;28;20027;-92
2021/01/26 10:52:45;;;;;;;16.35;2.83;;;5.30;93.80;;;;;;5074958;28;20082;-92
2021/01/26 10:55:17;;;;;;;6.65;1.20;;;5.40;93.80;;;;;;5039988;28;20024;-92
2021/01/26 10:57:44;;;;;;;7.03;1.27;;;5.40;93.60;;;;;;4973456;28;20034;-90
2021/01/26 11:00:13;;;;;;;10.93;1.30;;;5.50;93.60;;;;;;4993562;28;20056;-93
2021/01/26 11:02:39;;;;;;;5.50;0.80;;;5.50;93.50;;;;;;4987437;28;20472;-92
2021/01/26 11:05:07;;;;;;;7.75;1.10;;;5.50;93.50;;;;;;5008854;28;20037;-92
2021/01/26 11:07:33;;;;;;;8.00;1.10;;;5.60;93.50;;;;;;4982822;28;20124;-94
2021/01/26 11:09:59;;;;;;;9.20;0.93;;;5.60;93.50;;;;;;5013671;28;20491;-92
2021/01/26 11:12:25;;;;;;;10.05;1.15;;;5.70;93.40;;;;;;5033951;28;20030;-88
2021/01/26 11:14:54;;;;;;;10.45;1.77;;;5.70;93.30;;;;;;4973496;28;20426;-91
2021/01/26 11:17:21;;;;;;;3.90;0.80;;;5.80;93.20;;;;;;4975656;28;20069;-91
2021/01/26 11:19:48;;;;;;;10.63;0.93;;;5.80;93.00;;;;;;4984873;28;20047;-91
2021/01/26 11:22:15;;;;;;;5.68;1.60;;;5.80;92.90;;;;;;4986869;28;20024;-93
2021/01/26 11:24:42;;;;;;;7.50;0.80;;;5.90;92.90;;;;;;4972432;28;20088;-93
2021/01/26 11:27:08;;;;;;;8.30;0.60;;;5.90;92.70;;;;;;4982793;28;20058;-92
2021/01/26 11:29:34;;;;;;;6.10;1.45;;;6.00;92.20;;;;;;4973089;28;20023;-94
2021/01/26 11:32:00;;;;;;;6.28;0.63;;;6.10;92.20;;;;;;4970384;28;20031;-93
2021/01/26 11:34:25;;;;;;;10.57;1.10;;;6.10;92.00;;;;;;5002980;28;20095;-93
2021/01/26 11:36:51;;;;;;;14.68;2.03;;;6.10;92.00;;;;;;5074996;28;20058;-92
2021/01/26 11:39:17;;;;;;;12.30;2.47;;;6.10;91.90;;;;;;5001855;28;20031;-92
2021/01/26 11:41:43;;;;;;;9.93;1.67;;;6.10;91.90;;;;;;4971890;28;20022;-93
2021/01/26 11:44:09;;;;;;;7.97;1.88;;;6.00;91.80;;;;;;4973845;28;20042;-93
2021/01/26 11:46:34;;;;;;;10.57;2.70;;;6.00;92.10;;;;;;4972852;28;20407;-93
2021/01/26 11:49:00;;;;;;;20.15;4.40;;;6.00;92.20;;;;;;5028702;28;20094;-91
2021/01/26 11:51:26;;;;;;;6.88;2.40;;;6.00;92.20;;;;;;5011136;28;20106;-91
2021/01/26 11:53:53;;;;;;;13.23;2.90;;;6.10;92.20;;;;;;4972532;28;20054;-93
2021/01/26 11:56:21;;;;;;;14.30;2.85;;;6.00;92.10;;;;;;4972947;28;20079;-93
2021/01/26 11:58:47;;;;;;;9.93;2.25;;;6.00;92.20;;;;;;4961998;28;20084;-93
2021/01/26 12:01:13;;;;;;;10.95;2.33;;;6.00;92.10;;;;;;4982008;28;20019;-92
2021/01/26 12:03:39;;;;;;;12.57;3.10;;;5.90;92.30;;;;;;4971236;28;20316;-92
2021/01/26 12:06:05;;;;;;;8.57;1.98;;;5.90;92.50;;;;;;4970732;28;20027;-91
2021/01/26 12:08:30;;;;;;;10.63;2.17;;;6.00;92.60;;;;;;4986527;28;20030;-92
2021/01/26 12:10:56;;;;;;;8.38;1.00;;;6.00;92.50;;;;;;4979795;28;20058;-92
2021/01/26 12:13:22;;;;;;;9.85;0.90;;;6.00;92.50;;;;;;4970201;28;20053;-91
2021/01/26 12:15:49;;;;;;;6.85;0.80;;;6.00;92.30;;;;;;4970107;28;20027;-91
2021/01/26 12:18:15;;;;;;;5.97;0.45;;;6.00;92.10;;;;;;5016790;28;20025;-90
2021/01/26 12:20:41;;;;;;;6.55;0.73;;;6.00;91.90;;;;;;4971693;28;20035;-91
2021/01/26 12:23:07;;;;;;;6.68;0.52;;;6.10;91.60;;;;;;4972741;28;20026;-90
2021/01/26 12:25:35;;;;;;;4.20;0.30;;;6.10;91.80;;;;;;4972158;28;20050;-91
2021/01/26 12:28:03;;;;;;;5.47;0.57;;;6.10;91.80;;;;;;4972156;28;20470;-90
2021/01/26 12:30:29;;;;;;;5.50;0.57;;;6.20;91.60;;;;;;4972484;28;20077;-91
2021/01/26 12:32:55;;;;;;;2.65;0.30;;;6.20;91.50;;;;;;4975524;28;20026;-91
2021/01/26 12:35:28;;;;;;;4.88;0.30;;;6.10;91.30;;;;;;4976521;28;20027;-92
2021/01/26 12:37:53;;;;;;;4.55;0.70;;;6.20;91.30;;;;;;4976651;28;20511;-91
2021/01/26 12:40:20;;;;;;;3.80;0.50;;;6.10;90.90;;;;;;4979500;28;20031;-90
2021/01/26 12:42:46;;;;;;;2.35;0.38;;;6.00;90.80;;;;;;5020904;28;20505;-93
2021/01/26 12:45:14;;;;;;;3.60;0.40;;;6.00;90.80;;;;;;4975222;28;20030;-92
2021/01/26 12:47:40;;;;;;;5.35;0.57;;;6.00;90.90;;;;;;4975002;28;20083;-91
2021/01/26 12:50:07;;;;;;;3.55;0.70;;;6.00;90.60;;;;;;4976311;28;20066;-92
2021/01/26 12:52:33;;;;;;;5.55;0.77;;;6.00;90.70;;;;;;4972369;28;20395;-91
2021/01/26 12:54:59;;;;;;;7.88;0.50;;;6.00;90.70;;;;;;4972850;28;20027;-91
2021/01/26 12:57:24;;;;;;;1.42;0.30;;;6.10;90.60;;;;;;4971508;28;20050;-90
2021/01/26 12:59:51;;;;;;;3.45;0.85;;;6.30;90.60;;;;;;4971361;28;20100;-91
2021/01/26 13:02:19;;;;;;;4.72;0.30;;;6.30;90.50;;;;;;4971461;28;20023;-92
2021/01/26 13:04:45;;;;;;;8.48;0.57;;;6.30;90.30;;;;;;4970795;28;20125;-92
2021/01/26 13:07:11;;;;;;;2.08;0.25;;;6.30;90.10;;;;;;4963058;28;20126;-92
2021/01/26 13:09:37;;;;;;;2.72;0.40;;;6.30;90.30;;;;;;4973745;28;20023;-90
2021/01/26 13:12:02;;;;;;;2.58;0.40;;;6.40;90.30;;;;;;4993220;28;20096;-89
2021/01/26 13:14:28;;;;;;;6.13;0.50;;;6.40;90.10;;;;;;4973440;28;20042;-93
2021/01/26 13:16:54;;;;;;;5.07;0.30;;;6.40;90.00;;;;;;4973663;28;20027;-92
2021/01/26 13:19:21;;;;;;;7.40;0.60;;;6.30;89.70;;;;;;4971581;28;20099;-94
2021/01/26 13:21:48;;;;;;;4.95;0.40;;;6.30;89.70;;;;;;4971205;28;20066;-93
2021/01/26 13:24:13;;;;;;;8.73;0.40;;;6.20;88.90;;;;;;4974068;28;20612;-91
2021/01/26 13:26:39;;;;;;;2.28;0.30;;;6.10;89.40;;;;;;4972299;28;20085;-92
2021/01/26 13:29:05;;;;;;;2.22;0.30;;;6.10;90.00;;;;;;4975662;28;20475;-91